createdAt,value
2019-05-10T00:04:22.813Z,11.98
2019-05-10T00:09:30.562Z,12.90
2019-05-10T00:14:38.280Z,11.82
2019-05-10T00:19:45.886Z,12.09
2019-05-10T00:25:03.868Z,13.40
2019-05-10T00:30:00.862Z,12.10
2019-05-10T00:35:08.761Z,11.85
2019-05-10T00:40:16.521Z,14.43
2019-05-10T00:45:24.584Z,15.19
2019-05-10T00:50:32.357Z,15.78
2019-05-10T00:55:40.128Z,14.44
2019-05-10T01:00:47.818Z,15.72
2019-05-10T01:05:55.797Z,17.87
2019-05-10T01:11:03.613Z,18.01
2019-05-10T01:16:11.462Z,18.69
2019-05-10T01:21:19.174Z,17.90
2019-05-10T01:26:26.797Z,16.34
2019-05-10T01:31:34.441Z,21.23
2019-05-10T01:36:42.075Z,17.78
2019-05-10T01:41:49.713Z,19.96
2019-05-10T01:46:57.499Z,18.84
2019-05-10T01:52:05.248Z,19.09
2019-05-10T01:57:13.135Z,21.82
2019-05-10T02:02:20.829Z,21.89
2019-05-10T02:07:29.616Z,17.43
2019-05-10T02:12:37.341Z,18.60
2019-05-10T02:17:45.011Z,21.87
2019-05-10T02:22:52.857Z,21.72
2019-05-10T02:28:00.492Z,19.11
2019-05-10T02:33:08.191Z,20.46
2019-05-10T02:38:16.032Z,20.34
2019-05-10T02:43:23.718Z,18.82
2019-05-10T02:48:31.551Z,18.94
2019-05-10T02:53:39.294Z,18.94
2019-05-10T02:58:46.845Z,16.98
2019-05-10T03:03:54.617Z,17.97
2019-05-10T03:09:02.414Z,16.35
2019-05-10T03:14:10.064Z,17.37
2019-05-10T03:19:17.907Z,17.27
2019-05-10T03:24:27.962Z,15.39
2019-05-10T03:29:32.869Z,14.34
2019-05-10T03:34:40.523Z,17.22
2019-05-10T03:39:48.411Z,18.15
2019-05-10T03:44:56.201Z,19.50
2019-05-10T03:50:04.036Z,18.64
2019-05-10T03:55:11.669Z,18.53
2019-05-10T04:00:19.589Z,17.53
2019-05-10T04:05:27.325Z,19.96
2019-05-10T04:10:35.114Z,18.63
2019-05-10T04:15:42.878Z,19.82
2019-05-10T04:20:55.309Z,19.02
2019-05-10T04:25:52.929Z,20.50
2019-05-10T04:31:00.804Z,19.80
2019-05-10T04:36:12.513Z,22.24
2019-05-10T04:41:16.742Z,20.67
2019-05-10T04:46:24.265Z,25.88
2019-05-10T04:51:32.343Z,22.45
2019-05-10T04:56:39.982Z,24.12
2019-05-10T05:01:47.654Z,28.76
2019-05-10T05:06:55.468Z,28.88
2019-05-10T05:12:03.261Z,30.48
2019-05-10T05:17:11.079Z,26.07
2019-05-10T05:22:18.910Z,27.38
2019-05-10T05:27:26.617Z,30.77
2019-05-10T05:32:38.461Z,26.70
2019-05-10T05:37:41.958Z,26.48
2019-05-10T05:42:49.562Z,28.48
2019-05-10T05:47:57.231Z,26.77
2019-05-10T05:53:04.873Z,27.45
2019-05-10T05:58:25.578Z,25.35
2019-05-10T06:08:30.006Z,19.39
2019-05-10T06:13:34.370Z,16.85
2019-05-10T06:18:47.325Z,14.15
2019-05-10T06:23:49.322Z,13.11
2019-05-10T06:29:01.420Z,14.02
2019-05-10T06:34:04.412Z,12.63
2019-05-10T06:39:12.209Z,13.58
2019-05-10T06:44:24.950Z,13.26
2019-05-10T06:49:27.194Z,11.56
2019-05-10T06:54:34.913Z,9.73
2019-05-10T06:59:42.622Z,7.89
2019-05-10T07:04:51.084Z,4.40
2019-05-10T07:10:10.103Z,6.09
2019-05-10T07:15:05.494Z,5.39
2019-05-10T07:20:12.138Z,4.83
2019-05-10T07:25:19.903Z,5.82
2019-05-10T07:30:27.613Z,5.99
2019-05-10T07:35:36.977Z,6.73
2019-05-10T07:40:43.068Z,5.86
2019-05-10T07:45:50.898Z,7.40
2019-05-10T07:50:58.622Z,6.11
2019-05-10T07:56:07.757Z,7.12
2019-05-10T08:01:13.522Z,7.24
2019-05-10T08:06:21.338Z,9.45
2019-05-10T08:11:29.015Z,8.78
2019-05-10T08:16:38.762Z,9.64
2019-05-10T08:21:48.885Z,10.46
2019-05-10T08:26:55.477Z,10.77
2019-05-10T08:31:59.542Z,9.53
2019-05-10T08:37:07.577Z,6.87
2019-05-10T08:42:34.797Z,8.51
2019-05-10T08:47:27.204Z,6.92
2019-05-10T08:52:31.634Z,7.12
2019-05-10T09:02:44.234Z,6.43
2019-05-10T09:07:52.200Z,5.53
2019-05-10T09:12:59.582Z,5.60
2019-05-10T09:18:07.677Z,4.47
2019-05-10T09:23:19.912Z,4.60
2019-05-10T09:28:22.646Z,6.60
2019-05-10T09:33:32.010Z,4.43
2019-05-10T09:38:39.656Z,6.63
2019-05-10T09:43:48.863Z,6.94
2019-05-10T09:48:54.612Z,4.97
2019-05-10T09:54:00.418Z,7.24
2019-05-10T09:59:08.393Z,5.98
2019-05-10T10:04:14.418Z,6.24
2019-05-10T10:09:24.682Z,7.09
2019-05-10T10:14:38.183Z,7.88
2019-05-10T10:19:37.650Z,6.36
2019-05-10T10:24:48.783Z,9.62
2019-05-10T10:29:51.062Z,7.50
2019-05-10T10:34:58.824Z,4.95
2019-05-10T10:40:08.718Z,5.39
2019-05-10T10:45:13.725Z,6.11
2019-05-10T10:50:21.409Z,4.71
2019-05-10T10:55:32.417Z,4.39
2019-05-10T11:00:38.759Z,7.35
2019-05-10T11:05:43.628Z,3.81
2019-05-10T11:10:51.433Z,7.43
2019-05-10T11:16:08.564Z,6.29
2019-05-10T11:21:06.790Z,4.27
2019-05-10T11:26:14.489Z,3.83
2019-05-10T11:31:22.368Z,5.76
2019-05-10T11:36:31.231Z,5.51
2019-05-10T11:41:37.449Z,4.78
2019-05-10T11:46:45.096Z,4.19
2019-05-10T11:51:54.723Z,5.88
2019-05-10T11:57:06.566Z,5.53
2019-05-10T12:02:10.402Z,4.66
2019-05-10T12:07:14.417Z,4.64
2019-05-10T12:12:29.536Z,5.39
2019-05-10T12:17:30.377Z,5.22
2019-05-10T12:22:40.583Z,3.68
2019-05-10T12:27:48.944Z,4.66
2019-05-10T12:32:56.142Z,4.74
2019-05-10T12:38:01.658Z,6.02
2019-05-10T12:43:07.183Z,5.19
2019-05-10T12:48:14.943Z,4.40
2019-05-10T12:53:22.961Z,9.31
2019-05-10T12:58:30.821Z,5.51
2019-05-10T13:03:38.469Z,7.66
2019-05-10T13:08:46.209Z,6.32
2019-05-10T13:13:53.918Z,7.99
2019-05-10T13:19:01.661Z,5.75
2019-05-10T13:24:09.374Z,5.53
2019-05-10T13:29:17.117Z,6.94
2019-05-10T13:34:25.273Z,5.51
2019-05-10T13:39:33.006Z,9.83
2019-05-10T13:44:42.972Z,5.37
2019-05-10T13:49:49.631Z,8.84
2019-05-10T13:54:57.402Z,7.09
2019-05-10T14:00:06.105Z,8.35
2019-05-10T14:05:17.596Z,8.26
2019-05-10T14:10:23.398Z,7.94
2019-05-10T14:15:28.730Z,5.42
2019-05-10T14:20:36.528Z,6.43
2019-05-10T14:25:44.380Z,7.25
2019-05-10T14:30:57.276Z,7.29
2019-05-10T14:36:01.081Z,7.49
2019-05-10T14:41:10.686Z,6.87
2019-05-10T14:46:14.344Z,6.82
2019-05-10T14:51:22.047Z,7.99
2019-05-10T14:56:30.187Z,8.49
2019-05-10T15:01:42.987Z,8.30
2019-05-10T15:06:45.214Z,7.88
2019-05-10T15:11:52.877Z,8.55
2019-05-10T15:17:00.537Z,10.19
2019-05-10T15:22:08.157Z,6.66
2019-05-10T15:27:16.198Z,6.47
2019-05-10T15:32:23.098Z,9.59
2019-05-10T15:37:30.782Z,10.14
2019-05-10T15:42:38.649Z,7.29
2019-05-10T15:47:51.414Z,6.60
2019-05-10T15:52:53.463Z,8.39
2019-05-10T15:58:01.197Z,6.21
2019-05-10T16:03:09.923Z,8.78
2019-05-10T16:08:17.652Z,5.29
2019-05-10T16:13:25.366Z,7.46
2019-05-10T16:18:39.363Z,8.09
2019-05-10T16:23:41.450Z,8.71
2019-05-10T16:28:47.586Z,7.58
2019-05-10T16:33:55.697Z,9.51
2019-05-10T16:39:02.503Z,10.28
2019-05-10T16:44:10.198Z,9.38
2019-05-10T16:49:19.061Z,7.88
2019-05-10T16:54:27.318Z,7.93
2019-05-10T16:59:35.319Z,7.83
2019-05-10T17:04:42.166Z,9.65
2019-05-10T17:09:54.602Z,10.65
2019-05-10T17:15:02.292Z,8.94
2019-05-10T17:20:07.555Z,9.82
2019-05-10T17:25:11.594Z,7.88
2019-05-10T17:30:22.303Z,6.48
2019-05-10T17:35:26.563Z,7.94
2019-05-10T17:40:34.349Z,8.43
2019-05-10T17:45:42.425Z,6.84
2019-05-10T17:50:50.321Z,8.63
2019-05-10T17:56:02.602Z,8.96
2019-05-10T18:01:05.186Z,7.83
2019-05-10T18:06:23.426Z,9.62
2019-05-10T18:11:20.150Z,6.67
2019-05-10T18:16:27.849Z,8.43
2019-05-10T18:21:35.465Z,10.17
2019-05-10T18:26:43.558Z,8.30
2019-05-10T18:31:55.747Z,6.41
2019-05-10T18:36:58.674Z,8.40
2019-05-10T18:42:06.678Z,9.23
2019-05-10T18:47:14.482Z,8.34
2019-05-10T18:52:22.085Z,7.46
2019-05-10T18:57:29.758Z,8.08
2019-05-10T19:02:37.441Z,8.85
2019-05-10T19:07:46.110Z,8.94
2019-05-10T19:12:59.928Z,7.13
2019-05-10T19:18:00.893Z,7.15
2019-05-10T19:23:13.142Z,7.45
2019-05-10T19:28:20.878Z,10.24
2019-05-10T19:33:23.142Z,9.13
2019-05-10T19:38:30.803Z,10.83
2019-05-10T19:43:38.392Z,7.48
2019-05-10T19:48:46.097Z,11.29
2019-05-10T19:53:53.816Z,9.94
2019-05-10T19:59:05.379Z,10.41
2019-05-10T20:04:09.504Z,9.88
2019-05-10T20:09:16.150Z,13.42
2019-05-10T20:14:23.865Z,11.33
2019-05-10T20:19:31.789Z,11.85
2019-05-10T20:24:39.397Z,8.72
2019-05-10T20:29:47.123Z,10.69
2019-05-10T20:34:54.772Z,10.27
2019-05-10T20:40:02.619Z,10.46
2019-05-10T20:45:10.228Z,6.66
2019-05-10T20:50:18.841Z,7.52
2019-05-10T20:55:26.742Z,9.35
2019-05-10T21:00:34.509Z,8.92
2019-05-10T21:05:42.275Z,9.22
2019-05-10T21:10:50.178Z,7.43
2019-05-10T21:16:00.118Z,9.99
2019-05-10T21:21:07.831Z,10.51
2019-05-10T21:26:15.695Z,10.24
2019-05-10T21:31:23.723Z,11.81
2019-05-10T21:36:31.507Z,12.77
2019-05-10T21:41:39.277Z,20.81
2019-05-10T21:46:47.148Z,12.36
2019-05-10T21:51:55.065Z,12.60
2019-05-10T21:57:02.981Z,12.16
2019-05-10T22:02:10.822Z,11.48
2019-05-10T22:07:19.598Z,12.50
2019-05-10T22:12:27.598Z,9.62
2019-05-10T22:17:36.854Z,12.65
2019-05-10T22:22:44.758Z,8.67
2019-05-10T22:27:53.200Z,8.67
2019-05-10T22:33:01.054Z,9.65
2019-05-10T22:38:08.853Z,9.44
2019-05-10T22:43:19.166Z,6.35
2019-05-10T22:48:17.143Z,7.21
2019-05-10T22:53:25.266Z,8.38
2019-05-10T22:58:33.090Z,8.55
2019-05-10T23:03:40.873Z,8.09
2019-05-10T23:08:49.007Z,9.97
2019-05-10T23:13:56.682Z,10.19
2019-05-10T23:19:05.226Z,13.15
2019-05-10T23:24:13.049Z,8.13
2019-05-10T23:29:20.944Z,9.95
2019-05-10T23:34:29.421Z,10.16
2019-05-10T23:39:40.960Z,9.82
2019-05-10T23:44:44.634Z,9.53
2019-05-10T23:49:54.779Z,8.27
2019-05-10T23:54:52.615Z,16.36
